Time;durP1;ratioP1;P1;durP2;ratioP2;P2;SDS_P1;SDS_P2;PMS_P1;PMS_P2;Temp;Humidity;BMP_temperature;BMP_pressure;BME280_temperature;BME280_humidity;BME280_pressure;Samples;Min_cycle;Max_cycle;Signal;HPM_P1;HPM_P2
2021/03/05 00:01:33;;;;;;;15.00;12.37;;;7.10;99.90;;;7.20;66.69;102366.78;4899402;29;20057;-73
2021/03/05 00:04:02;;;;;;;13.40;11.80;;;7.10;99.90;;;7.19;66.46;102374.63;4916466;29;20447;-74
2021/03/05 00:06:30;;;;;;;13.83;11.63;;;7.10;99.90;;;7.22;66.09;102369.44;4916330;29;20055;-73
2021/03/05 00:08:57;;;;;;;15.87;11.50;;;7.20;99.90;;;6.93;65.33;102325.53;4916498;29;20060;-73
2021/03/05 00:11:25;;;;;;;14.50;11.40;;;7.20;99.90;;;7.21;65.27;102380.84;4916508;29;20426;-73
2021/03/05 00:13:52;;;;;;;15.23;12.20;;;7.10;99.90;;;7.17;64.17;102381.56;4916351;29;20048;-74
2021/03/05 00:16:19;;;;;;;17.17;12.40;;;7.10;99.90;;;7.05;63.75;102381.16;4916388;29;20048;-73
2021/03/05 00:18:47;;;;;;;16.00;11.35;;;7.10;99.90;;;7.08;63.84;102386.53;4916457;29;20047;-74
2021/03/05 00:21:14;;;;;;;15.43;10.77;;;7.00;99.90;;;7.13;63.51;102390.19;4899531;29;20454;-74
2021/03/05 00:23:42;;;;;;;15.87;11.10;;;7.10;99.90;;;7.21;63.25;102400.16;4916256;29;20052;-73
2021/03/05 00:26:10;;;;;;;14.50;11.47;;;7.20;99.90;;;7.22;62.90;102401.03;4916133;29;20040;-73
2021/03/05 00:28:37;;;;;;;14.07;11.43;;;7.20;99.90;;;7.20;62.70;102400.97;4916252;29;20127;-73
2021/03/05 00:31:05;;;;;;;12.10;10.93;;;7.20;99.90;;;7.22;62.57;102412.47;4916431;29;20044;-73
2021/03/05 00:33:32;;;;;;;13.07;10.27;;;7.20;99.90;;;7.13;62.38;102412.16;4916276;29;20443;-73
2021/03/05 00:36:00;;;;;;;14.33;10.77;;;7.10;99.90;;;6.53;61.98;102293.44;4899241;29;20059;-73
2021/03/05 00:38:27;;;;;;;17.83;10.90;;;7.20;99.90;;;7.17;62.00;102421.94;4916244;29;20131;-73
2021/03/05 00:40:56;;;;;;;13.80;11.30;;;7.20;99.90;;;7.11;62.04;102419.09;4916100;29;20048;-74
2021/03/05 00:43:24;;;;;;;14.10;11.03;;;7.10;99.90;;;7.24;61.83;102425.66;4916630;29;20048;-73
2021/03/05 00:45:52;;;;;;;17.63;12.80;;;7.20;99.90;;;7.08;61.50;102394.44;4902887;29;20048;-73
2021/03/05 00:48:23;;;;;;;13.53;11.80;;;7.20;99.90;;;7.06;62.24;102390.84;4903037;29;20147;-72
2021/03/05 00:50:51;;;;;;;16.60;12.00;;;7.20;99.90;;;7.10;62.90;102427.81;4902943;29;20048;-74
2021/03/05 00:53:19;;;;;;;17.43;12.17;;;7.10;99.90;;;7.06;63.54;102431.22;4919718;29;20083;-73
2021/03/05 00:55:46;;;;;;;15.50;11.97;;;7.00;99.90;;;6.96;64.14;102441.34;4902611;29;20052;-73
2021/03/05 00:58:19;;;;;;;23.73;14.03;;;6.90;99.90;;;6.93;64.38;102438.63;4902684;29;20060;-72
2021/03/05 01:00:47;;;;;;;18.43;13.93;;;6.90;99.90;;;6.93;64.93;102446.50;4902627;29;20058;-74
2021/03/05 01:03:18;;;;;;;17.37;13.77;;;6.80;99.90;;;6.87;64.83;102422.63;4919694;29;20566;-73
2021/03/05 01:05:46;;;;;;;16.53;13.93;;;6.90;99.90;;;6.93;65.04;102459.66;4919410;29;20084;-73
2021/03/05 01:08:15;;;;;;;16.63;13.30;;;6.90;99.90;;;6.87;65.67;102460.31;4902235;29;20056;-73
2021/03/05 01:10:47;;;;;;;16.93;12.97;;;6.80;99.90;;;6.77;65.71;102458.22;4902624;29;20084;-73
2021/03/05 01:13:14;;;;;;;17.83;13.57;;;6.70;99.90;;;6.76;66.17;102468.66;4919349;29;20487;-74
2021/03/05 01:15:43;;;;;;;22.80;14.30;;;6.70;99.90;;;6.82;66.20;102456.63;4919398;29;20052;-73
2021/03/05 01:18:13;;;;;;;15.97;13.17;;;6.70;99.90;;;6.73;66.07;102472.09;4919433;29;20131;-73
2021/03/05 01:20:42;;;;;;;18.00;13.70;;;6.70;99.90;;;6.47;66.55;102446.56;4919205;29;20076;-73
2021/03/05 01:23:09;;;;;;;19.07;13.43;;;6.60;99.90;;;6.69;66.35;102471.91;4919434;29;20063;-73
2021/03/05 01:25:37;;;;;;;17.83;13.37;;;6.60;99.90;;;6.74;66.63;102472.97;4919202;29;20047;-73
2021/03/05 01:28:05;;;;;;;15.90;13.53;;;6.70;99.90;;;6.74;66.55;102475.59;4902155;29;20107;-73
2021/03/05 01:30:32;;;;;;;21.83;13.53;;;6.60;99.90;;;6.74;66.63;102471.22;4919189;29;20106;-74
2021/03/05 01:33:01;;;;;;;17.40;13.87;;;6.60;99.90;;;6.72;66.64;102472.91;4902107;29;20107;-73
2021/03/05 01:35:29;;;;;;;19.13;14.30;;;6.60;99.90;;;6.66;66.63;102472.69;4919019;29;20502;-73
2021/03/05 01:37:57;;;;;;;19.40;14.80;;;6.60;99.90;;;6.68;66.83;102472.75;4918971;29;20051;-73
2021/03/05 01:40:29;;;;;;;18.80;13.93;;;6.60;99.90;;;6.80;66.68;102474.09;4919070;29;20048;-73
2021/03/05 01:42:57;;;;;;;17.93;13.33;;;6.70;99.90;;;6.59;66.92;102467.13;4919131;29;20157;-73
2021/03/05 01:45:28;;;;;;;19.50;14.83;;;6.60;99.90;;;6.74;66.59;102478.22;4918759;29;20052;-73
2021/03/05 01:47:58;;;;;;;18.33;13.20;;;6.60;99.90;;;6.68;66.56;102478.91;4918895;29;20044;-74
2021/03/05 01:50:31;;;;;;;20.60;13.13;;;6.60;99.90;;;6.73;66.61;102479.06;4918805;29;20044;-73
2021/03/05 01:53:02;;;;;;;17.57;13.90;;;6.70;99.90;;;6.74;66.42;102478.22;4918737;29;20456;-73
2021/03/05 01:55:29;;;;;;;19.87;12.90;;;6.60;99.90;;;6.72;66.41;102486.06;4900920;29;20438;-74
2021/03/05 01:57:57;;;;;;;20.10;13.53;;;6.60;99.90;;;6.67;66.62;102484.09;4918626;29;20075;-73
2021/03/05 02:00:31;;;;;;;19.27;13.83;;;6.60;99.90;;;6.68;66.29;102485.91;4901605;29;20044;-74
2021/03/05 02:02:59;;;;;;;19.33;14.10;;;6.60;99.90;;;6.65;66.42;102488.41;4918621;29;20545;-74
2021/03/05 02:05:28;;;;;;;17.70;13.77;;;6.60;99.90;;;6.64;66.78;102494.53;4918505;29;20055;-73
2021/03/05 02:07:56;;;;;;;16.73;13.10;;;6.60;99.90;;;6.65;66.85;102494.56;4918414;29;20048;-72
2021/03/05 02:10:23;;;;;;;19.33;13.90;;;6.60;99.90;;;6.66;66.48;102500.72;4918453;29;20055;-74
2021/03/05 02:12:51;;;;;;;22.87;13.53;;;6.50;99.90;;;6.70;66.69;102495.63;4918382;29;20044;-74
2021/03/05 02:15:18;;;;;;;17.97;12.97;;;6.60;99.90;;;6.65;66.40;102498.91;4918545;29;20056;-74
2021/03/05 02:17:55;;;;;;;18.73;13.27;;;6.50;99.90;;;6.67;66.19;102498.16;4918345;29;20048;-74
2021/03/05 02:20:33;;;;;;;17.50;12.93;;;6.50;99.90;;;6.64;66.44;102502.41;4918278;29;20119;-73
2021/03/05 02:23:33;;;;;;;18.10;13.43;;;6.50;99.90;;;6.64;66.59;102500.66;4918313;29;20131;-73
2021/03/05 02:26:53;;;;;;;21.27;13.13;;;6.50;99.90;;;6.63;66.54;102498.88;4901335;29;20075;-73
2021/03/05 02:30:02;;;;;;;24.87;13.37;;;6.40;99.90;;;6.69;66.54;102503.47;4918166;29;20055;-74
2021/03/05 02:32:38;;;;;;;21.23;13.17;;;6.50;99.90;;;6.69;66.33;102499.09;4889167;29;20573;-73
2021/03/05 02:35:08;;;;;;;21.43;12.87;;;6.50;99.90;;;6.73;66.30;102508.00;4918199;29;20040;-74
2021/03/05 02:37:40;;;;;;;19.57;11.53;;;6.60;99.90;;;6.54;66.68;102500.25;4917870;29;20593;-74
2021/03/05 02:40:10;;;;;;;18.97;12.50;;;6.40;99.90;;;6.46;66.86;102501.69;4917986;29;20455;-73
2021/03/05 02:42:46;;;;;;;21.70;12.35;;;6.40;99.90;;;6.43;66.95;102505.09;4917933;29;20099;-73
2021/03/05 02:45:18;;;;;;;23.63;12.53;;;6.30;99.90;;;6.45;67.27;102502.50;4917859;29;20052;-74
2021/03/05 02:47:49;;;;;;;19.00;11.60;;;6.40;99.90;;;6.44;67.09;102511.25;4917838;29;20044;-73
2021/03/05 02:50:21;;;;;;;20.33;11.60;;;6.30;99.90;;;6.42;67.00;102510.28;4917716;29;20525;-74
2021/03/05 02:52:52;;;;;;;22.20;11.90;;;6.40;99.90;;;6.42;66.78;102515.56;4917928;29;20095;-74
2021/03/05 02:55:21;;;;;;;23.53;11.90;;;6.30;99.90;;;6.34;67.08;102516.16;4917637;29;20059;-73
2021/03/05 02:57:54;;;;;;;18.07;11.33;;;6.30;99.90;;;6.33;66.99;102514.34;4917676;29;20062;-74
2021/03/05 03:00:24;;;;;;;19.57;10.80;;;6.30;99.90;;;6.25;66.78;102523.66;4900585;29;20060;-73
2021/03/05 03:02:54;;;;;;;21.03;10.93;;;6.20;99.90;;;6.28;66.81;102522.91;4900363;29;20052;-73
2021/03/05 03:05:22;;;;;;;17.55;9.35;;;6.20;99.90;;;6.24;66.82;102523.63;4917423;29;20640;-73
2021/03/05 03:07:51;;;;;;;18.70;10.13;;;6.20;99.90;;;6.23;66.83;102520.06;4917236;29;20048;-74
2021/03/05 03:10:22;;;;;;;17.83;8.90;;;6.20;99.90;;;6.21;66.72;102521.75;4900231;29;20064;-74
2021/03/05 03:12:53;;;;;;;21.42;8.85;;;6.20;99.90;;;6.15;66.78;102525.88;4917317;29;20044;-74
2021/03/05 03:15:21;;;;;;;23.30;10.60;;;6.10;99.90;;;6.21;66.65;102524.38;4917294;29;20108;-73
2021/03/05 03:17:49;;;;;;;17.40;8.87;;;6.10;99.90;;;6.15;66.55;102525.88;4917176;29;20516;-74
2021/03/05 03:20:21;;;;;;;18.87;8.90;;;6.10;99.90;;;6.18;66.78;102537.41;4917142;29;20055;-73
2021/03/05 03:22:49;;;;;;;17.17;8.73;;;6.10;99.90;;;6.12;66.35;102537.16;4917228;29;20048;-73
2021/03/05 03:25:17;;;;;;;20.77;8.40;;;6.00;99.90;;;6.17;66.31;102539.97;4900084;29;20561;-74
2021/03/05 03:27:45;;;;;;;17.97;8.20;;;6.10;99.90;;;6.12;66.25;102542.41;4899982;29;20084;-73
2021/03/05 03:30:16;;;;;;;18.07;8.40;;;6.10;99.90;;;6.13;66.15;102538.97;4899955;29;20056;-74
2021/03/05 03:32:44;;;;;;;21.08;8.00;;;6.00;99.90;;;6.13;66.54;102543.31;4917053;29;20048;-73
2021/03/05 03:35:14;;;;;;;22.00;8.43;;;6.10;99.90;;;6.09;65.95;102547.56;4916868;29;20052;-74
2021/03/05 03:37:43;;;;;;;21.27;8.57;;;6.10;99.90;;;6.04;66.21;102533.31;4899957;29;20103;-74
2021/03/05 03:40:17;;;;;;;21.90;7.73;;;6.00;99.90;;;6.14;65.91;102546.00;4916935;29;20048;-74
2021/03/05 03:42:46;;;;;;;18.77;7.97;;;6.00;99.90;;;6.04;66.15;102543.81;4916828;29;20048;-74
2021/03/05 03:45:18;;;;;;;22.97;8.17;;;6.00;99.90;;;6.07;65.93;102557.09;4899921;29;20052;-73
2021/03/05 03:47:46;;;;;;;18.40;7.20;;;6.00;99.90;;;5.93;66.10;102553.00;4916839;29;20048;-73
2021/03/05 03:50:20;;;;;;;21.83;7.67;;;5.90;99.90;;;5.96;66.15;102563.63;4916762;29;20051;-73
2021/03/05 03:52:51;;;;;;;15.63;6.80;;;5.90;99.90;;;5.99;66.20;102570.75;4899736;29;20503;-73
2021/03/05 03:55:19;;;;;;;18.70;7.30;;;5.90;99.90;;;5.89;66.27;102565.94;4899879;29;20470;-72
2021/03/05 03:57:50;;;;;;;16.17;6.70;;;5.90;99.90;;;5.91;66.09;102575.69;4916610;29;20048;-73
2021/03/05 04:00:19;;;;;;;22.20;7.33;;;5.80;99.90;;;5.98;65.87;102575.09;4916699;29;20037;-73
2021/03/05 04:02:52;;;;;;;17.77;7.23;;;5.80;99.90;;;5.95;65.80;102577.59;4916566;29;20074;-74
2021/03/05 04:05:26;;;;;;;18.10;6.77;;;5.80;99.90;;;5.97;65.63;102581.19;4916449;29;20898;-74
2021/03/05 04:07:57;;;;;;;18.77;7.70;;;5.90;99.90;;;6.01;65.59;102572.59;4899693;29;20082;-74
2021/03/05 04:10:24;;;;;;;;;;;5.90;99.90;;;5.93;65.77;102576.63;4900149;29;20056;-74
2021/03/05 04:12:52;;;;;;;28.00;6.73;;;5.90;99.90;;;5.96;65.81;102582.00;4916450;29;19927;-73
2021/03/05 04:15:20;;;;;;;18.20;6.50;;;5.80;99.90;;;5.96;65.96;102581.13;4916432;29;20127;-74
2021/03/05 04:17:48;;;;;;;19.30;6.30;;;5.90;99.90;;;5.82;65.58;102564.75;4916104;29;20040;-74
2021/03/05 04:20:18;;;;;;;15.07;6.90;;;5.90;99.90;;;5.74;65.54;102568.78;4916124;29;20048;-73
2021/03/05 04:22:46;;;;;;;18.53;6.60;;;5.80;99.90;;;5.88;65.83;102598.28;4916336;29;20066;-74
2021/03/05 04:25:17;;;;;;;16.13;6.33;;;5.80;99.90;;;5.85;65.62;102599.03;4916183;29;20096;-74
2021/03/05 04:27:46;;;;;;;23.97;7.03;;;5.80;99.90;;;5.68;65.90;102576.41;4916248;29;20119;-74
2021/03/05 04:30:15;;;;;;;17.87;6.90;;;5.80;99.90;;;5.83;65.81;102602.41;4916277;29;20040;-73
2021/03/05 04:32:43;;;;;;;18.30;6.57;;;5.80;99.90;;;5.89;65.77;102605.31;4916256;29;20052;-74
2021/03/05 04:35:12;;;;;;;18.20;7.33;;;5.70;99.90;;;5.74;65.79;102605.53;4916507;29;20044;-74
2021/03/05 04:37:40;;;;;;;19.63;7.37;;;5.70;99.90;;;5.78;65.79;102614.44;4899369;29;20064;-73
2021/03/05 04:40:10;;;;;;;15.47;6.87;;;5.70;99.90;;;5.77;66.17;102623.16;4916200;29;20555;-72
2021/03/05 04:42:39;;;;;;;17.60;7.28;;;5.70;99.90;;;5.75;66.01;102623.06;4916177;29;20062;-74
2021/03/05 04:45:08;;;;;;;19.33;7.40;;;5.70;99.90;;;5.79;65.85;102621.50;4916141;29;20169;-74
2021/03/05 04:47:36;;;;;;;19.77;7.17;;;5.70;99.90;;;5.79;65.94;102624.13;4916263;29;20051;-74
2021/03/05 04:50:05;;;;;;;23.33;7.20;;;5.70;99.90;;;5.84;65.58;102622.63;4899312;29;20064;-73
2021/03/05 04:52:33;;;;;;;19.30;6.77;;;5.70;99.90;;;5.78;65.69;102623.22;4916072;29;20040;-74
2021/03/05 04:55:00;;;;;;;17.70;6.50;;;5.70;99.90;;;5.04;65.79;102495.75;4916105;29;20052;-74
2021/03/05 04:57:27;;;;;;;18.10;6.63;;;5.70;99.90;;;5.78;65.62;102632.81;4916160;29;20451;-73
2021/03/05 04:59:55;;;;;;;21.13;7.07;;;5.70;99.90;;;5.79;65.81;102640.75;4916248;29;20382;-73
2021/03/05 05:02:23;;;;;;;17.70;5.93;;;5.70;99.90;;;5.18;65.23;102531.34;4916050;29;20103;-74
2021/03/05 05:04:51;;;;;;;16.37;6.40;;;5.70;99.90;;;5.74;65.50;102641.41;4916065;29;20048;-74
2021/03/05 05:07:19;;;;;;;22.83;6.27;;;5.70;99.90;;;5.72;65.79;102649.22;4916030;29;20607;-74
2021/03/05 05:09:46;;;;;;;16.03;6.17;;;5.60;99.90;;;5.78;65.41;102641.59;4915655;29;20179;-74
2021/03/05 05:12:14;;;;;;;20.03;6.53;;;5.70;99.90;;;5.74;65.43;102652.81;4898934;29;20052;-73
2021/03/05 05:14:41;;;;;;;22.17;7.33;;;5.70;99.90;;;5.73;65.50;102656.25;4915846;29;20414;-74
2021/03/05 05:17:09;;;;;;;17.50;6.67;;;5.70;99.90;;;5.69;65.60;102653.44;4916322;29;20091;-74
2021/03/05 05:19:37;;;;;;;17.10;6.43;;;5.60;99.90;;;5.67;65.60;102650.72;4915865;29;20040;-73
2021/03/05 05:22:04;;;;;;;16.43;6.67;;;5.60;99.90;;;5.77;65.15;102663.44;4915790;29;20467;-74
2021/03/05 05:24:32;;;;;;;20.53;6.73;;;5.70;99.90;;;5.76;65.28;102661.66;4898828;29;20422;-74
2021/03/05 05:26:59;;;;;;;18.63;6.47;;;5.70;99.90;;;5.70;65.19;102661.38;4915756;29;20059;-74
2021/03/05 05:29:30;;;;;;;21.33;6.67;;;5.60;99.90;;;5.72;65.16;102658.81;4915853;29;20044;-73
2021/03/05 05:31:57;;;;;;;19.77;6.30;;;5.70;99.90;;;5.60;65.42;102666.13;4901378;29;20135;-73
2021/03/05 05:34:26;;;;;;;19.13;6.37;;;5.60;99.90;;;5.66;65.07;102663.78;4919139;29;20407;-74
2021/03/05 05:36:57;;;;;;;21.97;6.47;;;5.60;99.90;;;5.71;64.67;102663.16;4919095;29;20044;-74
2021/03/05 05:39:39;;;;;;;23.77;6.60;;;5.70;99.90;;;5.68;65.01;102668.28;4902160;29;20056;-74
2021/03/05 05:42:08;;;;;;;18.00;6.10;;;5.60;99.90;;;5.63;65.33;102663.66;4919135;29;20134;-73
2021/03/05 05:44:37;;;;;;;20.67;6.70;;;5.60;99.90;;;5.65;65.23;102668.16;4919013;29;20056;-74
2021/03/05 05:47:05;;;;;;;18.77;6.10;;;5.60;99.90;;;5.64;64.94;102670.69;4918836;29;20414;-73
2021/03/05 05:49:36;;;;;;;18.70;7.10;;;5.60;99.90;;;5.40;64.89;102644.28;4918830;29;20052;-73
2021/03/05 05:52:05;;;;;;;16.20;6.40;;;5.60;99.90;;;5.54;65.04;102677.25;4918743;29;20079;-73
2021/03/05 05:54:34;;;;;;;27.67;6.90;;;5.50;99.90;;;5.55;65.22;102665.94;4901998;29;20663;-74
2021/03/05 05:57:02;;;;;;;20.43;6.63;;;5.50;99.90;;;5.57;65.14;102674.78;4901694;29;20060;-74
2021/03/05 05:59:30;;;;;;;17.70;6.27;;;5.50;99.90;;;5.46;65.17;102666.44;4918681;29;20430;-73
2021/03/05 06:01:57;;;;;;;19.20;6.30;;;5.50;99.90;;;5.47;65.49;102669.97;4918651;29;20141;-74
2021/03/05 06:04:27;;;;;;;21.23;7.33;;;5.40;99.90;;;5.44;65.51;102680.28;4918536;29;20509;-74
2021/03/05 06:06:56;;;;;;;14.90;6.37;;;5.40;99.90;;;5.46;65.78;102679.53;4918426;29;20080;-73
2021/03/05 06:09:23;;;;;;;14.83;6.50;;;5.40;99.90;;;5.50;65.59;102670.06;4918612;29;20056;-74
2021/03/05 06:11:51;;;;;;;19.77;6.67;;;5.50;99.90;;;5.53;65.62;102678.09;4918627;29;20451;-73
2021/03/05 06:14:21;;;;;;;22.00;6.00;;;5.50;99.90;;;5.58;65.08;102680.91;4918192;29;20052;-74
2021/03/05 06:16:56;;;;;;;18.20;6.40;;;5.50;99.90;;;4.81;65.19;102549.78;4918313;29;20498;-74
2021/03/05 06:19:27;;;;;;;19.93;7.23;;;5.50;99.90;;;5.57;65.48;102680.03;4918380;29;20534;-73
2021/03/05 06:21:58;;;;;;;19.93;6.93;;;5.50;99.90;;;5.55;65.00;102675.53;4918281;29;20099;-74
2021/03/05 06:24:27;;;;;;;17.87;6.17;;;5.50;99.90;;;5.60;65.33;102685.41;4918232;29;20407;-72
2021/03/05 06:26:58;;;;;;;16.73;6.67;;;5.50;99.90;;;5.63;64.80;102690.81;4918081;29;20079;-74
2021/03/05 06:29:27;;;;;;;19.17;6.03;;;5.60;99.90;;;5.67;64.87;102695.34;4918178;29;20047;-73
2021/03/05 06:31:58;;;;;;;16.20;6.05;;;5.60;99.90;;;5.59;64.88;102682.72;4901140;29;20470;-73
2021/03/05 06:34:28;;;;;;;14.23;5.57;;;5.60;99.90;;;5.72;65.02;102690.31;4918185;29;20434;-73
2021/03/05 06:37:03;;;;;;;22.90;7.10;;;5.60;99.90;;;5.76;65.16;102723.75;4917981;29;20051;-74
2021/03/05 06:39:32;;;;;;;14.03;5.77;;;5.70;99.90;;;5.91;65.13;102712.22;4901306;29;20119;-74
2021/03/05 06:42:03;;;;;;;18.17;6.20;;;5.80;99.90;;;6.18;64.25;102710.81;4900411;29;20048;-74
2021/03/05 06:44:32;;;;;;;19.30;6.38;;;6.10;99.90;;;6.34;64.03;102722.88;4917711;29;20054;-74
2021/03/05 06:47:09;;;;;;;17.63;5.73;;;6.20;99.90;;;6.47;63.87;102722.53;4917378;29;20095;-74
2021/03/05 06:49:37;;;;;;;21.30;6.27;;;6.30;99.90;;;6.47;63.18;102703.22;4917729;29;20115;-74
2021/03/05 06:52:07;;;;;;;27.90;7.00;;;6.40;99.90;;;6.83;62.39;102752.09;4917725;29;20131;-73
2021/03/05 06:54:35;;;;;;;20.92;6.78;;;6.60;99.90;;;7.01;62.09;102747.56;4917671;29;20075;-74
2021/03/05 06:57:06;;;;;;;16.47;6.60;;;6.80;99.90;;;7.17;61.39;102748.25;4917576;29;20438;-73
2021/03/05 06:59:39;;;;;;;13.80;6.32;;;7.00;99.90;;;7.52;60.02;102754.88;4917560;29;20506;-74
2021/03/05 07:02:08;;;;;;;16.17;5.93;;;7.20;99.90;;;7.68;59.96;102762.53;4917560;29;20104;-74
2021/03/05 07:04:45;;;;;;;17.53;6.37;;;7.50;99.90;;;7.85;59.81;102761.41;4900530;29;20052;-74
2021/03/05 07:07:13;;;;;;;18.33;6.00;;;7.60;99.90;;;7.91;58.93;102769.53;4900543;29;20407;-74
2021/03/05 07:09:43;;;;;;;19.07;6.60;;;7.60;99.90;;;7.95;58.69;102768.81;4917217;29;20064;-74
2021/03/05 07:12:12;;;;;;;18.53;7.50;;;7.80;99.90;;;7.91;59.26;102772.19;4917340;29;20040;-74
2021/03/05 07:14:41;;;;;;;19.10;6.00;;;7.70;99.90;;;8.07;58.61;102778.91;4917619;29;20075;-73
2021/03/05 07:17:10;;;;;;;15.80;5.90;;;7.90;99.90;;;7.96;58.55;102757.41;4900322;29;20794;-74
2021/03/05 07:19:39;;;;;;;16.30;5.93;;;8.00;99.90;;;8.18;58.62;102791.63;4917130;29;20051;-74
2021/03/05 07:22:09;;;;;;;20.92;6.95;;;8.10;99.90;;;8.40;58.23;102800.34;4917181;29;20044;-74
2021/03/05 07:24:38;;;;;;;19.42;6.57;;;8.30;99.90;;;8.62;58.12;102802.84;4917106;29;20044;-74
2021/03/05 07:27:07;;;;;;;16.63;6.35;;;8.50;99.90;;;8.75;57.66;102808.59;4916988;29;20059;-73
2021/03/05 07:29:37;;;;;;;14.75;6.40;;;8.70;99.90;;;8.83;57.33;102817.69;4916911;29;20506;-73
2021/03/05 07:32:08;;;;;;;18.52;6.85;;;8.70;99.90;;;8.82;57.03;102807.09;4899727;29;20052;-74
2021/03/05 07:34:52;;;;;;;19.00;6.15;;;8.80;99.90;;;8.85;56.67;102807.16;4899914;29;20056;-73
2021/03/05 07:37:23;;;;;;;19.80;6.88;;;8.90;99.90;;;8.82;56.78;102765.78;4899930;29;20044;-74
2021/03/05 07:39:55;;;;;;;19.90;5.80;;;9.10;99.90;;;8.90;56.52;102760.75;4916956;29;20056;-72
2021/03/05 07:42:24;;;;;;;22.10;6.00;;;9.30;99.90;;;9.48;56.18;102835.69;4916595;29;20072;-73
2021/03/05 07:44:56;;;;;;;15.68;5.90;;;9.40;99.90;;;9.79;56.04;102841.03;4899976;29;20048;-73
2021/03/05 07:47:25;;;;;;;19.92;5.82;;;9.70;99.90;;;10.07;55.18;102844.50;4916489;29;20044;-74
2021/03/05 07:49:58;;;;;;;15.63;6.53;;;9.90;99.90;;;10.25;54.22;102843.34;4916700;29;20380;-73
2021/03/05 07:52:25;;;;;;;17.17;6.60;;;10.20;99.90;;;10.06;54.34;102855.94;4916620;29;20043;-73
2021/03/05 07:54:54;;;;;;;14.95;6.55;;;10.10;99.90;;;9.85;54.21;102849.16;4915862;29;20406;-73
2021/03/05 07:57:48;;;;;;;19.63;6.13;;;9.90;99.90;;;9.96;54.58;102846.84;4916867;29;20059;-73
2021/03/05 08:00:46;;;;;;;17.08;6.18;;;9.90;99.90;;;10.17;54.27;102858.09;4916590;29;20063;-73
2021/03/05 08:03:17;;;;;;;13.77;6.00;;;10.10;99.90;;;10.36;54.16;102852.47;4913063;29;20075;-73
2021/03/05 08:05:47;;;;;;;16.20;6.25;;;10.30;99.90;;;10.25;53.50;102840.69;4916529;29;20050;-73
2021/03/05 08:08:18;;;;;;;15.23;6.20;;;10.30;99.90;;;10.62;53.98;102859.41;4916524;29;20075;-73
2021/03/05 08:10:50;;;;;;;15.60;6.32;;;10.50;99.90;;;10.90;53.54;102855.72;4916094;29;20060;-73
2021/03/05 08:13:49;;;;;;;14.60;5.60;;;10.80;99.90;;;10.94;52.66;102838.19;4916418;29;20146;-72
2021/03/05 08:16:40;;;;;;;19.48;6.60;;;11.00;99.90;;;11.27;52.65;102871.69;4916574;29;20062;-73
2021/03/05 08:19:38;;;;;;;14.05;6.05;;;11.20;99.90;;;11.61;52.31;102871.63;4916500;29;20056;-73
2021/03/05 08:22:05;;;;;;;23.27;6.28;;;11.40;99.90;;;11.77;52.02;102873.81;4893837;29;20392;-73
2021/03/05 08:24:36;;;;;;;11.60;6.03;;;11.60;99.90;;;11.88;51.12;102871.44;4916009;29;20043;-69
2021/03/05 08:27:06;;;;;;;16.92;6.45;;;11.80;99.90;;;11.75;51.05;102874.63;4916370;29;20150;-71
2021/03/05 08:30:03;;;;;;;16.77;6.78;;;11.70;99.90;;;11.59;50.73;102885.72;4899204;29;20155;-69
2021/03/05 08:32:54;;;;;;;13.07;6.10;;;11.60;99.90;;;11.50;50.74;102893.44;4915601;29;20107;-69
2021/03/05 08:35:47;;;;;;;11.00;6.13;;;11.40;99.90;;;11.59;51.56;102896.34;4899253;29;20108;-69
2021/03/05 08:38:20;;;;;;;16.75;6.38;;;11.40;99.90;;;11.87;50.84;102898.78;4916236;29;20055;-69
2021/03/05 08:40:50;;;;;;;12.77;5.85;;;11.70;99.90;;;11.99;50.35;102901.72;4916190;29;20047;-70
2021/03/05 08:43:23;;;;;;;12.02;6.50;;;11.90;99.90;;;12.08;49.48;102911.66;4916179;29;20391;-70
2021/03/05 08:45:54;;;;;;;17.65;6.45;;;12.00;99.90;;;12.31;48.87;102910.41;4916195;29;20058;-71
2021/03/05 08:48:35;;;;;;;14.60;5.97;;;12.20;99.90;;;12.39;48.43;102914.06;4916421;29;20383;-72
2021/03/05 08:51:12;;;;;;;15.35;6.15;;;12.30;99.90;;;12.38;48.00;102914.97;4915938;29;20047;-74
2021/03/05 08:53:43;;;;;;;12.75;6.28;;;12.30;99.90;;;12.24;48.15;102912.00;4916062;29;20100;-74
2021/03/05 08:56:12;;;;;;;;;;;12.20;99.90;;;12.04;48.50;102904.50;4916358;29;20071;-75
2021/03/05 08:58:41;;;;;;;15.40;6.13;;;12.00;99.90;;;11.69;48.00;102893.94;4916058;29;20344;-76
2021/03/05 09:01:08;;;;;;;10.95;5.50;;;11.80;99.90;;;10.97;48.85;102909.72;4915973;29;20036;-74
2021/03/05 09:03:36;;;;;;;16.02;6.05;;;11.30;99.90;;;11.31;49.70;102885.91;4915820;29;20048;-69
2021/03/05 09:06:12;;;;;;;11.07;6.32;;;11.20;99.90;;;11.94;48.62;102913.09;4918855;29;20127;-69
2021/03/05 09:08:39;;;;;;;16.70;6.18;;;11.70;99.90;;;11.98;47.16;102905.22;4919827;29;20501;-70
2021/03/05 09:11:09;;;;;;;8.55;4.93;;;11.90;99.90;;;12.21;46.20;102911.06;4919413;29;20472;-69
2021/03/05 09:13:42;;;;;;;14.70;5.75;;;12.10;99.90;;;12.57;45.83;102915.38;4919365;29;20048;-68
2021/03/05 09:16:09;;;;;;;14.27;6.20;;;12.40;99.90;;;11.01;46.61;102915.16;4902244;29;20418;-72
2021/03/05 09:18:38;;;;;;;13.57;5.78;;;11.60;99.90;;;11.81;47.16;102917.19;4919185;29;20060;-69
2021/03/05 09:21:08;;;;;;;15.52;6.18;;;11.60;99.90;;;12.22;45.92;102921.69;4902500;29;20606;-68
2021/03/05 09:23:37;;;;;;;9.32;5.25;;;12.00;99.90;;;12.48;44.17;102919.59;4919809;29;20099;-69
2021/03/05 09:26:07;;;;;;;12.90;5.32;;;12.30;99.90;;;12.52;42.93;102953.31;4919098;29;20052;-70
2021/03/05 09:28:41;;;;;;;14.45;5.75;;;12.40;99.90;;;10.74;45.96;102922.38;4919423;29;20112;-71
2021/03/05 09:31:11;;;;;;;10.30;4.90;;;10.90;99.90;;;10.85;44.66;102886.47;4919157;29;20055;-70
2021/03/05 09:33:40;;;;;;;11.68;4.88;;;11.10;99.90;;;10.06;44.32;102885.03;4902235;29;20044;-68
2021/03/05 09:36:10;;;;;;;9.57;5.07;;;10.50;99.90;;;9.00;46.13;102923.84;4918959;29;20048;-68
2021/03/05 09:38:43;;;;;;;7.55;5.13;;;9.30;99.90;;;9.00;49.11;102921.22;4919113;29;20131;-69
2021/03/05 09:41:14;;;;;;;9.88;5.40;;;8.80;99.90;;;9.94;48.23;102925.22;4919008;29;20072;-69
2021/03/05 09:43:43;;;;;;;8.57;5.20;;;9.40;99.90;;;9.74;43.92;102932.50;4918888;29;20044;-69
2021/03/05 09:46:21;;;;;;;8.13;5.15;;;9.80;99.90;;;10.81;43.53;102929.59;4918961;29;20052;-69
2021/03/05 09:48:50;;;;;;;10.18;5.35;;;10.40;99.90;;;11.24;41.17;102921.97;4918829;29;20394;-69
2021/03/05 09:51:18;;;;;;;6.43;4.78;;;11.10;99.90;;;11.88;39.64;102939.47;4918700;29;20040;-70
2021/03/05 09:53:54;;;;;;;8.60;5.45;;;11.60;99.90;;;10.91;38.41;102931.66;4918687;29;20454;-76
2021/03/05 09:56:24;;;;;;;6.60;4.22;;;11.30;99.90;;;10.75;40.22;102932.06;4918541;29;20406;-67
2021/03/05 09:58:58;;;;;;;7.18;4.80;;;10.70;99.90;;;10.64;38.44;102942.38;4918555;29;20044;-66
2021/03/05 10:01:28;;;;;;;8.60;5.20;;;10.80;99.90;;;11.38;39.31;102940.88;4918585;29;20052;-66
2021/03/05 10:03:58;;;;;;;9.98;4.80;;;11.10;99.90;;;9.48;39.21;102914.94;4918678;29;20419;-66
2021/03/05 10:06:27;;;;;;;6.60;4.78;;;10.10;99.90;;;9.99;41.09;102937.72;4918424;29;20080;-67
2021/03/05 10:09:03;;;;;;;10.52;4.40;;;9.80;99.90;;;10.99;39.71;102946.00;4918402;29;20103;-67
2021/03/05 10:11:35;;;;;;;12.07;4.82;;;10.60;99.90;;;10.17;41.23;102958.59;4918228;29;20067;-74
2021/03/05 10:14:06;;;;;;;5.47;4.25;;;10.20;99.90;;;10.76;38.09;102942.69;4918378;29;20515;-75
2021/03/05 10:16:35;;;;;;;7.53;4.85;;;10.60;99.90;;;11.52;39.24;102945.63;4917626;29;20044;-79
2021/03/05 10:19:09;;;;;;;8.40;4.65;;;11.10;99.90;;;12.11;37.38;102952.41;4918238;29;20059;-78
2021/03/05 10:21:41;;;;;;;5.40;3.75;;;11.80;99.90;;;12.75;38.26;102951.13;4918341;29;20108;-72
2021/03/05 10:24:11;;;;;;;6.75;3.78;;;12.40;99.90;;;12.77;36.62;102931.69;4918616;29;20055;-79
2021/03/05 10:27:10;;;;;;;6.47;4.10;;;12.80;99.90;;;13.21;36.23;102953.81;4918098;29;20044;-73
2021/03/05 10:29:41;;;;;;;7.90;4.55;;;13.10;99.90;;;13.62;35.66;102978.47;4901202;29;20506;-72
2021/03/05 10:32:19;;;;;;;7.35;4.10;;;13.50;99.90;;;13.88;35.22;102971.84;4917953;29;20044;-72